Time;durP1;ratioP1;P1;durP2;ratioP2;P2;SDS_P1;SDS_P2;PMS_P1;PMS_P2;Temp;Humidity;BMP_temperature;BMP_pressure;BME280_temperature;BME280_humidity;BME280_pressure;Samples;Min_cycle;Max_cycle;Signal;HPM_P1;HPM_P2
2023/10/25 00:01:52;;;;;;;12.07;5.97;;;;;;;;;;5106850;28;20043;-67
2023/10/25 00:04:18;;;;;;;12.60;6.13;;;;;;;;;;5109344;28;20053;-67
2023/10/25 00:06:45;;;;;;;12.02;6.32;;;;;;;;;;5108988;28;20044;-67
2023/10/25 00:09:13;;;;;;;10.52;5.70;;;;;;;;;;5111042;28;20044;-67
2023/10/25 00:11:39;;;;;;;11.88;6.05;;;;;;;;;;5106669;28;20495;-67
2023/10/25 00:14:08;;;;;;;12.20;5.50;;;;;;;;;;5108590;28;20052;-67
2023/10/25 00:16:34;;;;;;;9.57;5.38;;;;;;;;;;5105289;28;20054;-66
2023/10/25 00:19:01;;;;;;;11.90;5.55;;;;;;;;;;5105443;28;20048;-67
2023/10/25 00:21:27;;;;;;;6.88;4.97;;;;;;;;;;5100709;28;20044;-67
2023/10/25 00:23:54;;;;;;;7.47;5.20;;;;;;;;;;5106400;28;20049;-67
2023/10/25 00:26:22;;;;;;;12.45;5.63;;;;;;;;;;5102883;28;20418;-67
2023/10/25 00:28:48;;;;;;;11.73;6.28;;;;;;;;;;5111395;28;20044;-67
2023/10/25 00:31:15;;;;;;;10.80;5.30;;;;;;;;;;5107299;28;20220;-67
2023/10/25 00:33:42;;;;;;;10.07;5.40;;;;;;;;;;5107275;28;20044;-67
2023/10/25 00:36:08;;;;;;;12.35;5.85;;;;;;;;;;5105234;28;20044;-67
2023/10/25 00:38:35;;;;;;;10.38;5.85;;;;;;;;;;5103694;28;20062;-67
2023/10/25 00:41:02;;;;;;;12.80;5.75;;;;;;;;;;5099453;28;20079;-67
2023/10/25 00:43:29;;;;;;;11.73;5.93;;;;;;;;;;5103881;28;20505;-67
2023/10/25 00:46:03;;;;;;;12.55;5.60;;;;;;;;;;5110812;28;20044;-67
2023/10/25 00:48:30;;;;;;;11.52;5.15;;;;;;;;;;5103862;28;20052;-67
2023/10/25 00:50:57;;;;;;;10.85;5.93;;;;;;;;;;5103700;28;20075;-67
2023/10/25 00:53:25;;;;;;;8.63;5.35;;;;;;;;;;5105515;28;20047;-68
2023/10/25 00:55:53;;;;;;;9.13;5.75;;;;;;;;;;5102886;28;20051;-67
2023/10/25 00:58:20;;;;;;;8.43;4.97;;;;;;;;;;5103472;28;20125;-67
2023/10/25 01:00:48;;;;;;;8.52;4.93;;;;;;;;;;5105666;28;20054;-67
2023/10/25 01:03:17;;;;;;;7.75;4.85;;;;;;;;;;5102468;28;20506;-67
2023/10/25 01:05:44;;;;;;;8.55;5.13;;;;;;;;;;5105836;28;20048;-67
2023/10/25 01:08:11;;;;;;;9.75;5.20;;;;;;;;;;5108621;28;20051;-67
2023/10/25 01:10:37;;;;;;;9.25;5.43;;;;;;;;;;5106324;28;20050;-66
2023/10/25 01:13:04;;;;;;;9.57;5.40;;;;;;;;;;5106213;28;20047;-67
2023/10/25 01:15:30;;;;;;;8.13;5.25;;;;;;;;;;5099571;28;20051;-67
2023/10/25 01:17:58;;;;;;;7.20;4.70;;;;;;;;;;5105730;28;20061;-67
2023/10/25 01:20:25;;;;;;;7.95;5.07;;;;;;;;;;5107678;28;20592;-67
2023/10/25 01:22:53;;;;;;;9.63;4.75;;;;;;;;;;5102800;28;20044;-67
2023/10/25 01:25:20;;;;;;;7.97;4.47;;;;;;;;;;5106424;28;20043;-67
2023/10/25 01:27:46;;;;;;;7.28;4.28;;;;;;;;;;5100670;28;20217;-67
2023/10/25 01:30:13;;;;;;;7.20;4.65;;;;;;;;;;5110699;28;20066;-67
2023/10/25 01:32:40;;;;;;;9.40;4.43;;;;;;;;;;5099197;28;20059;-67
2023/10/25 01:35:08;;;;;;;6.15;4.40;;;;;;;;;;5102527;28;20495;-67
2023/10/25 01:37:35;;;;;;;6.75;4.60;;;;;;;;;;5106869;28;20507;-67
2023/10/25 01:40:04;;;;;;;6.28;4.78;;;;;;;;;;5102818;28;20040;-67
2023/10/25 01:42:30;;;;;;;6.32;4.28;;;;;;;;;;5099908;28;20051;-67
2023/10/25 01:44:57;;;;;;;6.03;4.22;;;;;;;;;;5103182;28;20063;-67
2023/10/25 01:47:24;;;;;;;9.25;4.85;;;;;;;;;;5108793;28;20418;-67
2023/10/25 01:49:50;;;;;;;6.53;4.60;;;;;;;;;;5104753;28;20430;-67
2023/10/25 01:52:17;;;;;;;7.60;5.30;;;;;;;;;;5105844;28;20044;-67
2023/10/25 01:54:45;;;;;;;7.30;4.43;;;;;;;;;;5101228;28;20484;-67
2023/10/25 01:57:13;;;;;;;7.57;4.70;;;;;;;;;;5109744;28;20556;-67
2023/10/25 01:59:40;;;;;;;10.55;4.75;;;;;;;;;;5108125;28;20048;-67
2023/10/25 02:02:07;;;;;;;6.70;4.70;;;;;;;;;;5106744;28;20411;-67
2023/10/25 02:04:33;;;;;;;6.80;4.50;;;;;;;;;;5099341;28;20047;-67
2023/10/25 02:07:00;;;;;;;6.53;4.50;;;;;;;;;;5106754;28;20043;-67
2023/10/25 02:09:26;;;;;;;7.30;4.72;;;;;;;;;;5103811;28;20121;-66
2023/10/25 02:11:53;;;;;;;11.13;4.57;;;;;;;;;;5102775;28;20055;-67
2023/10/25 02:14:21;;;;;;;8.05;4.65;;;;;;;;;;5109959;28;20047;-67
2023/10/25 02:16:47;;;;;;;9.52;4.20;;;;;;;;;;5106904;28;20437;-67
2023/10/25 02:19:15;;;;;;;13.27;4.68;;;;;;;;;;5106901;28;20521;-67
2023/10/25 02:21:41;;;;;;;8.98;4.47;;;;;;;;;;5105498;28;20546;-66
2023/10/25 02:24:10;;;;;;;24.00;4.80;;;;;;;;;;5105234;28;20128;-66
2023/10/25 02:26:37;;;;;;;16.00;5.00;;;;;;;;;;5106784;28;20093;-67
2023/10/25 02:29:03;;;;;;;16.55;4.57;;;;;;;;;;5107369;28;20501;-66
2023/10/25 02:31:33;;;;;;;16.83;5.57;;;;;;;;;;5104406;28;20130;-67
2023/10/25 02:34:00;;;;;;;9.80;4.78;;;;;;;;;;5110843;28;20502;-67
2023/10/25 02:36:26;;;;;;;10.02;4.35;;;;;;;;;;5108589;28;20518;-66
2023/10/25 02:38:53;;;;;;;8.60;4.68;;;;;;;;;;5108527;28;20492;-67
2023/10/25 02:41:19;;;;;;;9.40;4.43;;;;;;;;;;5106916;28;20519;-66
2023/10/25 02:43:46;;;;;;;7.65;3.95;;;;;;;;;;5104463;28;20050;-66
2023/10/25 02:46:13;;;;;;;7.07;4.32;;;;;;;;;;5105967;28;20049;-66
2023/10/25 02:48:41;;;;;;;7.70;4.03;;;;;;;;;;5110465;28;20472;-66
2023/10/25 02:51:08;;;;;;;5.38;4.05;;;;;;;;;;5114310;28;20134;-66
2023/10/25 02:53:34;;;;;;;5.95;3.75;;;;;;;;;;5107148;28;20109;-66
2023/10/25 02:56:03;;;;;;;4.65;3.50;;;;;;;;;;5106012;28;20134;-67
2023/10/25 02:58:29;;;;;;;4.43;3.30;;;;;;;;;;5105879;28;20101;-67
2023/10/25 03:00:57;;;;;;;4.05;3.20;;;;;;;;;;5103986;28;20044;-66
2023/10/25 03:03:23;;;;;;;4.50;3.13;;;;;;;;;;5103446;28;20089;-66
2023/10/25 03:05:51;;;;;;;3.95;2.92;;;;;;;;;;5106616;28;20727;-66
2023/10/25 03:08:18;;;;;;;3.60;3.20;;;;;;;;;;5114217;28;20044;-67
2023/10/25 03:10:44;;;;;;;4.68;2.90;;;;;;;;;;5104927;28;20044;-67
2023/10/25 03:13:11;;;;;;;3.13;2.83;;;;;;;;;;5107656;28;20052;-67
2023/10/25 03:15:38;;;;;;;4.25;3.17;;;;;;;;;;5101755;28;20437;-65
2023/10/25 03:18:05;;;;;;;5.68;2.97;;;;;;;;;;5108579;28;20393;-67
2023/10/25 03:20:32;;;;;;;3.85;3.00;;;;;;;;;;5101511;28;20109;-66
2023/10/25 03:23:00;;;;;;;5.53;3.10;;;;;;;;;;5109855;28;20046;-67
2023/10/25 03:25:27;;;;;;;4.03;2.97;;;;;;;;;;5103193;28;20046;-66
2023/10/25 03:27:53;;;;;;;3.58;2.85;;;;;;;;;;5108261;28;20044;-66
2023/10/25 03:30:20;;;;;;;4.15;3.25;;;;;;;;;;5103481;28;20039;-66
2023/10/25 03:32:47;;;;;;;3.80;2.95;;;;;;;;;;5109001;28;20070;-66
2023/10/25 03:35:13;;;;;;;4.60;3.45;;;;;;;;;;5111696;28;20050;-66
2023/10/25 03:37:40;;;;;;;5.88;3.13;;;;;;;;;;5102249;28;20052;-66
2023/10/25 03:40:09;;;;;;;6.65;3.85;;;;;;;;;;5105564;28;20043;-66
2023/10/25 03:42:36;;;;;;;6.60;3.17;;;;;;;;;;5104386;28;20051;-66
2023/10/25 03:45:03;;;;;;;5.65;3.38;;;;;;;;;;5101702;28;20040;-66
2023/10/25 03:47:30;;;;;;;5.82;3.30;;;;;;;;;;5104648;28;20427;-66
2023/10/25 03:49:57;;;;;;;6.47;3.33;;;;;;;;;;5105556;28;20048;-67
2023/10/25 03:52:23;;;;;;;7.10;3.30;;;;;;;;;;5105322;28;20078;-65
2023/10/25 03:54:50;;;;;;;4.38;3.00;;;;;;;;;;5103687;28;20495;-67
2023/10/25 03:57:18;;;;;;;6.88;3.70;;;;;;;;;;5107142;28;20044;-66
2023/10/25 03:59:45;;;;;;;6.38;3.50;;;;;;;;;;5106462;28;20050;-67
2023/10/25 04:02:11;;;;;;;5.28;3.30;;;;;;;;;;5112141;28;20050;-67
2023/10/25 04:04:38;;;;;;;14.25;3.30;;;;;;;;;;5104001;28;20040;-66
2023/10/25 04:07:04;;;;;;;5.80;3.65;;;;;;;;;;5105518;28;20044;-67
2023/10/25 04:09:31;;;;;;;5.30;3.72;;;;;;;;;;5108315;28;20160;-66
2023/10/25 04:11:57;;;;;;;7.82;4.07;;;;;;;;;;5106497;28;20052;-67
2023/10/25 04:14:25;;;;;;;5.68;3.95;;;;;;;;;;5100554;28;20039;-66
2023/10/25 04:16:52;;;;;;;9.73;4.30;;;;;;;;;;5108467;28;20463;-65
2023/10/25 04:19:18;;;;;;;6.85;3.78;;;;;;;;;;5103719;28;20483;-66
2023/10/25 04:21:45;;;;;;;8.60;4.07;;;;;;;;;;5104526;28;20050;-66
2023/10/25 04:24:11;;;;;;;6.95;4.30;;;;;;;;;;5106205;28;20040;-66
2023/10/25 04:26:38;;;;;;;6.75;4.20;;;;;;;;;;5104902;28;20281;-66
2023/10/25 04:29:05;;;;;;;7.28;4.15;;;;;;;;;;5109492;28;20044;-66
2023/10/25 04:31:33;;;;;;;7.72;4.20;;;;;;;;;;5097964;28;20043;-66
2023/10/25 04:34:00;;;;;;;10.63;4.00;;;;;;;;;;5106599;28;20052;-66
2023/10/25 04:36:26;;;;;;;9.93;3.85;;;;;;;;;;5097855;28;20078;-67
2023/10/25 04:38:53;;;;;;;6.70;3.80;;;;;;;;;;5101088;28;20117;-67
2023/10/25 04:41:19;;;;;;;5.45;3.35;;;;;;;;;;5103812;28;20044;-67
2023/10/25 04:43:46;;;;;;;5.80;3.15;;;;;;;;;;5101396;28;20050;-67
2023/10/25 04:46:13;;;;;;;4.25;3.13;;;;;;;;;;5101981;28;20051;-67
2023/10/25 04:48:41;;;;;;;4.97;3.15;;;;;;;;;;5102605;28;20055;-67
2023/10/25 04:51:13;;;;;;;5.65;3.15;;;;;;;;;;5103816;28;20048;-66
2023/10/25 04:53:39;;;;;;;5.72;3.58;;;;;;;;;;5103802;28;20047;-66
2023/10/25 04:56:06;;;;;;;5.53;3.33;;;;;;;;;;5103950;28;20050;-67
2023/10/25 04:58:33;;;;;;;4.90;3.20;;;;;;;;;;5102011;28;20431;-67
2023/10/25 05:00:59;;;;;;;5.65;3.33;;;;;;;;;;5099666;28;20048;-67
2023/10/25 05:03:26;;;;;;;4.93;3.30;;;;;;;;;;5106103;28;20052;-67
2023/10/25 05:05:55;;;;;;;5.85;3.13;;;;;;;;;;5108530;28;20044;-67
2023/10/25 05:08:22;;;;;;;6.57;3.17;;;;;;;;;;5102968;28;20056;-67
2023/10/25 05:10:52;;;;;;;6.95;3.13;;;;;;;;;;5100690;28;20313;-67
2023/10/25 05:13:20;;;;;;;4.85;3.38;;;;;;;;;;5106558;28;20335;-67
2023/10/25 05:15:47;;;;;;;6.43;3.63;;;;;;;;;;5096490;28;20062;-67
2023/10/25 05:18:14;;;;;;;4.63;2.95;;;;;;;;;;5105566;28;20319;-67
2023/10/25 05:20:41;;;;;;;6.32;2.83;;;;;;;;;;5099367;28;20054;-67
2023/10/25 05:23:11;;;;;;;5.80;3.28;;;;;;;;;;5102705;27;20073;-67
2023/10/25 05:25:38;;;;;;;4.35;2.92;;;;;;;;;;5105238;28;20050;-67
2023/10/25 05:28:06;;;;;;;5.15;3.40;;;;;;;;;;5099974;28;20040;-67
2023/10/25 05:30:33;;;;;;;5.90;3.17;;;;;;;;;;5104651;28;20043;-67
2023/10/25 05:33:01;;;;;;;4.82;3.50;;;;;;;;;;5106790;28;20487;-66
2023/10/25 05:35:29;;;;;;;4.47;3.17;;;;;;;;;;5099241;28;20048;-66
2023/10/25 05:37:56;;;;;;;3.60;2.72;;;;;;;;;;5096152;28;20126;-67
2023/10/25 05:40:25;;;;;;;4.78;3.28;;;;;;;;;;5103434;28;20424;-67
2023/10/25 05:42:54;;;;;;;4.53;3.38;;;;;;;;;;5105660;28;20051;-66
2023/10/25 05:45:21;;;;;;;4.63;3.40;;;;;;;;;;5105111;28;20510;-67
2023/10/25 05:47:48;;;;;;;5.70;3.33;;;;;;;;;;5105795;28;20055;-67
2023/10/25 05:50:16;;;;;;;7.10;3.90;;;;;;;;;;5109340;28;20130;-66
2023/10/25 05:52:44;;;;;;;3.55;2.92;;;;;;;;;;5099506;28;20040;-66
2023/10/25 05:55:13;;;;;;;5.40;3.17;;;;;;;;;;5094600;28;20051;-67
2023/10/25 05:57:41;;;;;;;5.80;3.17;;;;;;;;;;5100525;28;20051;-67
2023/10/25 06:00:08;;;;;;;3.78;3.00;;;;;;;;;;5103029;28;20048;-67
2023/10/25 06:02:35;;;;;;;4.15;3.22;;;;;;;;;;5106856;28;20511;-67
2023/10/25 06:05:03;;;;;;;5.53;3.80;;;;;;;;;;5110056;28;20047;-66
2023/10/25 06:07:30;;;;;;;4.93;3.42;;;;;;;;;;5101954;28;20055;-67
2023/10/25 06:09:57;;;;;;;5.47;3.53;;;;;;;;;;5103513;28;20043;-67
2023/10/25 06:12:24;;;;;;;5.68;3.60;;;;;;;;;;5102622;28;20050;-67
2023/10/25 06:14:52;;;;;;;5.18;4.03;;;;;;;;;;5105242;28;20070;-67
2023/10/25 06:17:19;;;;;;;6.68;4.00;;;;;;;;;;5106541;28;20049;-66
2023/10/25 06:19:46;;;;;;;5.57;3.50;;;;;;;;;;5103680;28;20080;-67
2023/10/25 06:22:12;;;;;;;5.38;3.95;;;;;;;;;;5102050;28;20489;-66
2023/10/25 06:24:39;;;;;;;4.95;3.50;;;;;;;;;;5101947;28;20048;-67
2023/10/25 06:27:05;;;;;;;5.47;3.67;;;;;;;;;;5107441;28;20048;-67
2023/10/25 06:29:32;;;;;;;4.43;3.60;;;;;;;;;;5106518;28;20044;-67
2023/10/25 06:32:00;;;;;;;5.50;4.13;;;;;;;;;;5104855;28;20059;-67
2023/10/25 06:34:26;;;;;;;7.57;3.67;;;;;;;;;;5106356;28;20059;-67
2023/10/25 06:36:53;;;;;;;4.68;3.00;;;;;;;;;;5108576;28;20040;-67
2023/10/25 06:39:20;;;;;;;4.82;3.15;;;;;;;;;;5102102;28;20426;-67
2023/10/25 06:41:47;;;;;;;5.68;3.17;;;;;;;;;;5104124;28;20044;-67
2023/10/25 06:44:15;;;;;;;9.77;3.40;;;;;;;;;;5108701;28;20392;-67
2023/10/25 06:46:42;;;;;;;3.53;3.03;;;;;;;;;;5108590;28;20054;-67
2023/10/25 06:49:11;;;;;;;4.88;3.10;;;;;;;;;;5110490;28;20063;-67
2023/10/25 06:51:38;;;;;;;5.65;3.30;;;;;;;;;;5105989;28;20048;-67
2023/10/25 06:54:05;;;;;;;3.63;3.08;;;;;;;;;;5098829;28;20054;-67
2023/10/25 06:56:33;;;;;;;4.63;3.28;;;;;;;;;;5106080;28;20112;-68
2023/10/25 06:59:00;;;;;;;4.60;3.40;;;;;;;;;;5103211;28;20534;-66
2023/10/25 07:01:30;;;;;;;4.40;3.60;;;;;;;;;;5101996;28;20094;-66
2023/10/25 07:03:59;;;;;;;4.68;3.22;;;;;;;;;;5107499;28;20054;-66
2023/10/25 07:06:28;;;;;;;6.93;3.28;;;;;;;;;;5099109;28;20036;-67
2023/10/25 07:08:55;;;;;;;4.35;3.53;;;;;;;;;;5104878;28;20431;-68
2023/10/25 07:11:21;;;;;;;4.55;3.10;;;;;;;;;;5100392;28;20050;-67
2023/10/25 07:13:48;;;;;;;4.55;3.45;;;;;;;;;;5108358;28;20052;-68
2023/10/25 07:16:15;;;;;;;4.22;3.20;;;;;;;;;;5109231;28;20044;-68
2023/10/25 07:18:41;;;;;;;6.60;3.80;;;;;;;;;;5100816;28;20461;-67
2023/10/25 07:21:07;;;;;;;4.43;3.15;;;;;;;;;;5106056;28;20039;-67
2023/10/25 07:23:35;;;;;;;3.22;2.92;;;;;;;;;;5105132;28;20488;-67
2023/10/25 07:26:01;;;;;;;6.18;3.28;;;;;;;;;;5108291;28;20085;-67
2023/10/25 07:28:28;;;;;;;5.90;3.20;;;;;;;;;;5103086;28;20062;-66
2023/10/25 07:30:54;;;;;;;7.82;3.25;;;;;;;;;;5107321;28;20079;-68
2023/10/25 07:33:22;;;;;;;3.97;2.88;;;;;;;;;;5106613;28;20048;-67
2023/10/25 07:35:49;;;;;;;6.03;3.05;;;;;;;;;;5109849;28;20040;-67
2023/10/25 07:38:16;;;;;;;5.53;2.75;;;;;;;;;;5105795;28;20048;-67
2023/10/25 07:40:43;;;;;;;3.45;3.15;;;;;;;;;;5106637;28;20044;-66
2023/10/25 07:43:10;;;;;;;4.03;3.17;;;;;;;;;;5105903;28;20051;-67
2023/10/25 07:45:37;;;;;;;3.38;3.08;;;;;;;;;;5100793;28;20063;-68
2023/10/25 07:48:04;;;;;;;3.85;2.88;;;;;;;;;;5113682;28;20079;-66
2023/10/25 07:50:31;;;;;;;3.75;3.22;;;;;;;;;;5108446;28;20048;-69
2023/10/25 07:52:58;;;;;;;4.60;3.15;;;;;;;;;;5107603;28;20487;-67
2023/10/25 07:55:24;;;;;;;5.40;3.50;;;;;;;;;;5106326;28;20047;-67
2023/10/25 07:57:54;;;;;;;5.50;3.33;;;;;;;;;;5107709;28;20048;-68
2023/10/25 08:00:20;;;;;;;3.70;3.30;;;;;;;;;;5108186;28;20044;-67
2023/10/25 08:02:47;;;;;;;3.80;2.95;;;;;;;;;;5107223;28;20097;-67
2023/10/25 08:05:14;;;;;;;4.57;2.97;;;;;;;;;;5108922;28;20502;-66
2023/10/25 08:07:42;;;;;;;4.55;2.78;;;;;;;;;;5100777;28;20054;-68
2023/10/25 08:10:10;;;;;;;4.70;3.08;;;;;;;;;;5106008;28;20412;-67
2023/10/25 08:12:36;;;;;;;3.25;2.95;;;;;;;;;;5104167;28;20047;-67
2023/10/25 08:15:06;;;;;;;3.28;2.53;;;;;;;;;;5104145;28;20048;-67
2023/10/25 08:17:33;;;;;;;7.28;3.00;;;;;;;;;;5105860;27;20139;-66
2023/10/25 08:19:59;;;;;;;3.65;2.63;;;;;;;;;;5105433;28;20055;-67
2023/10/25 08:22:26;;;;;;;3.78;2.50;;;;;;;;;;5107470;28;20054;-67
2023/10/25 08:24:52;;;;;;;4.90;2.38;;;;;;;;;;5110611;28;20051;-66
2023/10/25 08:27:19;;;;;;;2.92;2.58;;;;;;;;;;5102917;28;20492;-68
2023/10/25 08:29:46;;;;;;;4.25;3.38;;;;;;;;;;5105871;28;20522;-66
2023/10/25 08:32:14;;;;;;;4.20;2.17;;;;;;;;;;5103469;28;20050;-67
2023/10/25 08:34:45;;;;;;;3.38;2.20;;;;;;;;;;5101537;28;20048;-68
2023/10/25 08:37:12;;;;;;;2.53;2.08;;;;;;;;;;5103864;28;20503;-66
2023/10/25 08:39:38;;;;;;;4.47;2.33;;;;;;;;;;5105346;28;20116;-66
2023/10/25 08:42:07;;;;;;;5.63;2.80;;;;;;;;;;5107018;28;20387;-66
2023/10/25 08:44:38;;;;;;;4.28;2.35;;;;;;;;;;5103937;28;20040;-66
2023/10/25 08:47:06;;;;;;;2.70;1.65;;;;;;;;;;5100507;28;20047;-67
2023/10/25 08:49:34;;;;;;;4.10;2.53;;;;;;;;;;5103594;28;20086;-68
2023/10/25 08:52:00;;;;;;;3.58;2.60;;;;;;;;;;5107693;28;20054;-68
2023/10/25 08:54:29;;;;;;;2.70;2.15;;;;;;;;;;5102274;28;20387;-68
2023/10/25 08:56:56;;;;;;;3.00;2.08;;;;;;;;;;5105028;28;20054;-67
2023/10/25 08:59:22;;;;;;;1.92;1.73;;;;;;;;;;5104672;28;20048;-68
2023/10/25 09:01:49;;;;;;;4.07;1.85;;;;;;;;;;5105974;28;20044;-67
2023/10/25 09:04:15;;;;;;;3.88;2.30;;;;;;;;;;5102867;28;20048;-68
2023/10/25 09:06:45;;;;;;;2.42;2.22;;;;;;;;;;5102747;28;20044;-67
2023/10/25 09:09:12;;;;;;;2.78;2.50;;;;;;;;;;5104406;28;20431;-66
2023/10/25 09:11:39;;;;;;;5.13;2.63;;;;;;;;;;5099377;28;20086;-66
2023/10/25 09:14:06;;;;;;;2.75;2.30;;;;;;;;;;5103849;28;20057;-66
2023/10/25 09:16:32;;;;;;;3.83;2.25;;;;;;;;;;5104140;28;20048;-68
2023/10/25 09:19:02;;;;;;;1.77;1.67;;;;;;;;;;5104039;28;20434;-67
2023/10/25 09:21:29;;;;;;;2.13;1.73;;;;;;;;;;5102931;28;20051;-66
2023/10/25 09:23:59;;;;;;;2.47;1.60;;;;;;;;;;5101741;28;20063;-66
2023/10/25 09:26:32;;;;;;;2.10;1.50;;;;;;;;;;5102732;28;20043;-68
2023/10/25 09:28:59;;;;;;;4.43;2.08;;;;;;;;;;5105243;28;20047;-69
2023/10/25 09:31:27;;;;;;;1.65;1.55;;;;;;;;;;5103294;28;20050;-67
2023/10/25 09:33:56;;;;;;;1.55;1.42;;;;;;;;;;5105640;28;20058;-67
2023/10/25 09:36:23;;;;;;;3.30;1.60;;;;;;;;;;5103522;28;20423;-67
2023/10/25 09:38:51;;;;;;;2.00;1.38;;;;;;;;;;5102727;28;20048;-67
2023/10/25 09:41:20;;;;;;;2.03;1.30;;;;;;;;;;5102057;28;20043;-67
2023/10/25 09:43:48;;;;;;;1.90;1.52;;;;;;;;;;5101406;28;20093;-67
2023/10/25 09:46:17;;;;;;;1.83;1.42;;;;;;;;;;5105523;28;20040;-68
2023/10/25 09:48:54;;;;;;;1.98;1.50;;;;;;;;;;5101027;28;20047;-68
2023/10/25 09:51:28;;;;;;;2.25;1.45;;;;;;;;;;5100608;28;20515;-67
2023/10/25 09:53:59;;;;;;;2.00;1.70;;;;;;;;;;5104232;28;20086;-68
2023/10/25 09:56:27;;;;;;;2.65;1.55;;;;;;;;;;5101507;28;20044;-67
2023/10/25 09:58:55;;;;;;;3.70;1.67;;;;;;;;;;5102577;28;20044;-67
2023/10/25 10:01:21;;;;;;;2.20;1.75;;;;;;;;;;5097454;28;20046;-68
2023/10/25 10:03:53;;;;;;;3.72;1.77;;;;;;;;;;5100811;28;20044;-69
2023/10/25 10:06:31;;;;;;;1.90;1.40;;;;;;;;;;5105376;28;20058;-68
2023/10/25 10:09:07;;;;;;;2.35;1.50;;;;;;;;;;5105774;28;20148;-67
2023/10/25 10:11:41;;;;;;;2.40;1.65;;;;;;;;;;5105320;28;20427;-67
2023/10/25 10:14:28;;;;;;;3.38;1.55;;;;;;;;;;5099720;28;20507;-66
2023/10/25 10:16:57;;;;;;;2.05;1.30;;;;;;;;;;5104956;28;20048;-67
2023/10/25 10:19:24;;;;;;;0.80;0.80;;;;;;;;;;5102076;28;20062;-68
2023/10/25 10:22:07;;;;;;;1.45;1.00;;;;;;;;;;5106007;28;20048;-67
2023/10/25 10:24:44;;;;;;;;;;;;;;;;;;5106838;28;20417;-66
2023/10/25 10:27:14;;;;;;;1.13;1.02;;;;;;;;;;5101930;28;19945;-67
2023/10/25 10:29:42;;;;;;;6.07;3.03;;;;;;;;;;5102137;28;20051;-68
2023/10/25 10:32:09;;;;;;;2.35;2.15;;;;;;;;;;5105745;28;20050;-67
2023/10/25 10:34:47;;;;;;;1.33;1.00;;;;;;;;;;5100313;28;20109;-67
2023/10/25 10:37:16;;;;;;;1.60;1.25;;;;;;;;;;5109123;28;20048;-66
2023/10/25 10:40:14;;;;;;;0.90;0.88;;;;;;;;;;5106505;28;20119;-66
2023/10/25 10:42:42;;;;;;;1.67;1.38;;;;;;;;;;5104501;28;20044;-67
2023/10/25 10:45:13;;;;;;;0.95;0.90;;;;;;;;;;5101557;28;20044;-69
2023/10/25 10:47:42;;;;;;;2.33;1.77;;;;;;;;;;5109188;28;20053;-67
2023/10/25 10:50:13;;;;;;;5.72;2.30;;;;;;;;;;5109340;28;20051;-67
2023/10/25 10:52:41;;;;;;;3.05;2.47;;;;;;;;;;5107537;28;20051;-67
2023/10/25 10:55:08;;;;;;;3.03;2.30;;;;;;;;;;5110005;28;20419;-67
2023/10/25 10:57:36;;;;;;;3.38;1.98;;;;;;;;;;5113700;28;20039;-69
2023/10/25 11:00:08;;;;;;;2.50;2.05;;;;;;;;;;5110505;28;20537;-68
2023/10/25 11:02:36;;;;;;;3.55;2.08;;;;;;;;;;5100660;28;20058;-67
2023/10/25 11:05:03;;;;;;;2.65;1.65;;;;;;;;;;5112363;28;20058;-67
2023/10/25 11:07:29;;;;;;;3.10;1.77;;;;;;;;;;5102395;27;20072;-67
2023/10/25 11:09:56;;;;;;;4.45;2.85;;;;;;;;;;5110118;28;20039;-68
2023/10/25 11:12:24;;;;;;;7.45;4.68;;;;;;;;;;5107647;28;20387;-66
2023/10/25 11:14:51;;;;;;;7.05;4.20;;;;;;;;;;5108898;28;20445;-68
2023/10/25 11:17:20;;;;;;;7.82;4.20;;;;;;;;;;5109356;28;20074;-69
2023/10/25 11:19:48;;;;;;;3.90;1.83;;;;;;;;;;5104781;28;20491;-67
2023/10/25 11:22:15;;;;;;;3.85;2.50;;;;;;;;;;5104873;28;20415;-68
2023/10/25 11:24:42;;;;;;;2.58;2.08;;;;;;;;;;5107431;28;20066;-66
2023/10/25 11:27:08;;;;;;;3.28;2.47;;;;;;;;;;5109743;28;20044;-67
2023/10/25 11:29:37;;;;;;;3.53;2.00;;;;;;;;;;5109783;28;20050;-68
2023/10/25 11:32:06;;;;;;;1.27;1.10;;;;;;;;;;5112770;28;20079;-66
2023/10/25 11:34:34;;;;;;;2.78;1.98;;;;;;;;;;5105701;28;20040;-70
2023/10/25 11:37:01;;;;;;;1.20;0.90;;;;;;;;;;5104776;28;20044;-67
2023/10/25 11:39:32;;;;;;;2.13;0.85;;;;;;;;;;5106142;28;20047;-68
2023/10/25 11:41:59;;;;;;;1.02;0.68;;;;;;;;;;5103003;28;20086;-68
2023/10/25 11:44:26;;;;;;;0.65;0.65;;;;;;;;;;5105619;28;20500;-67
2023/10/25 11:46:55;;;;;;;1.30;0.98;;;;;;;;;;5108369;28;20052;-67
2023/10/25 11:49:22;;;;;;;0.88;0.88;;;;;;;;;;5107920;28;20048;-67
2023/10/25 11:51:50;;;;;;;1.45;0.80;;;;;;;;;;5110412;28;20401;-66
2023/10/25 11:54:16;;;;;;;1.42;1.00;;;;;;;;;;5111753;28;20439;-67
2023/10/25 11:56:43;;;;;;;1.08;0.88;;;;;;;;;;5110574;28;20044;-67
2023/10/25 11:59:09;;;;;;;1.50;1.40;;;;;;;;;;5104693;28;20050;-68
2023/10/25 12:01:36;;;;;;;2.92;1.85;;;;;;;;;;5105148;28;20101;-67
2023/10/25 12:04:02;;;;;;;3.83;2.38;;;;;;;;;;5104448;28;20044;-67
2023/10/25 12:06:29;;;;;;;2.50;2.30;;;;;;;;;;5108928;28;20044;-66
2023/10/25 12:08:59;;;;;;;3.95;2.28;;;;;;;;;;5107277;28;20055;-67
2023/10/25 12:11:25;;;;;;;1.90;1.52;;;;;;;;;;5105190;28;20122;-66
2023/10/25 12:13:53;;;;;;;2.88;1.52;;;;;;;;;;5106844;28;20495;-67
2023/10/25 12:16:20;;;;;;;2.25;1.30;;;;;;;;;;5107827;28;20427;-68
2023/10/25 12:18:46;;;;;;;2.33;1.40;;;;;;;;;;5107335;28;20075;-67
2023/10/25 12:21:13;;;;;;;2.85;1.90;;;;;;;;;;5107749;28;20040;-68
2023/10/25 12:23:39;;;;;;;3.70;1.85;;;;;;;;;;5108604;28;20046;-67
2023/10/25 12:26:09;;;;;;;2.08;1.88;;;;;;;;;;5101416;28;20047;-66
2023/10/25 12:28:37;;;;;;;3.10;2.30;;;;;;;;;;5103732;28;20139;-67
2023/10/25 12:31:03;;;;;;;4.55;3.38;;;;;;;;;;5104430;28;20570;-68
2023/10/25 12:33:30;;;;;;;3.85;2.88;;;;;;;;;;5101021;28;20048;-67
2023/10/25 12:35:56;;;;;;;3.50;2.70;;;;;;;;;;5109582;28;20044;-66
2023/10/25 12:38:23;;;;;;;2.30;1.92;;;;;;;;;;5105281;28;20047;-68
2023/10/25 12:40:48;;;;;;;2.28;1.75;;;;;;;;;;5107067;28;20048;-68
2023/10/25 12:43:16;;;;;;;2.83;2.08;;;;;;;;;;5107891;28;20049;-67
2023/10/25 12:45:43;;;;;;;3.95;2.88;;;;;;;;;;5109860;28;20486;-67
2023/10/25 12:48:09;;;;;;;5.07;3.40;;;;;;;;;;5103840;28;20514;-68
2023/10/25 12:50:36;;;;;;;5.05;3.65;;;;;;;;;;5103191;28;20052;-66
2023/10/25 12:53:03;;;;;;;2.63;2.42;;;;;;;;;;5110440;28;20047;-67
2023/10/25 12:55:30;;;;;;;3.70;3.35;;;;;;;;;;5112364;28;20499;-68
2023/10/25 12:57:56;;;;;;;4.55;3.47;;;;;;;;;;5106589;28;20497;-68
2023/10/25 13:00:24;;;;;;;9.38;5.82;;;;;;;;;;5105988;28;20040;-67
2023/10/25 13:02:51;;;;;;;5.03;4.13;;;;;;;;;;5108983;28;20487;-67
2023/10/25 13:05:17;;;;;;;4.57;3.88;;;;;;;;;;5108951;28;20048;-67
2023/10/25 13:07:44;;;;;;;3.53;2.72;;;;;;;;;;5104694;28;20044;-68
2023/10/25 13:10:11;;;;;;;3.20;2.90;;;;;;;;;;5102963;28;20044;-68
2023/10/25 13:12:37;;;;;;;5.85;3.60;;;;;;;;;;5099054;28;20044;-67
2023/10/25 13:15:05;;;;;;;4.60;3.75;;;;;;;;;;5103029;28;20043;-68
2023/10/25 13:17:33;;;;;;;4.15;3.30;;;;;;;;;;5104102;28;20044;-68
2023/10/25 13:20:02;;;;;;;4.20;2.90;;;;;;;;;;5105326;28;20058;-69
2023/10/25 13:22:29;;;;;;;2.28;2.08;;;;;;;;;;5107187;28;20051;-66
2023/10/25 13:24:55;;;;;;;3.45;2.03;;;;;;;;;;5110764;28;20050;-67
2023/10/25 13:27:22;;;;;;;2.45;2.00;;;;;;;;;;5107773;28;20063;-68
2023/10/25 13:29:49;;;;;;;4.20;2.25;;;;;;;;;;5100943;28;20050;-67
2023/10/25 13:32:15;;;;;;;3.95;2.60;;;;;;;;;;5106858;28;20050;-66
2023/10/25 13:34:44;;;;;;;2.97;2.55;;;;;;;;;;5106172;28;20040;-67
2023/10/25 13:37:11;;;;;;;4.32;3.05;;;;;;;;;;5106713;28;20054;-68
2023/10/25 13:39:37;;;;;;;6.57;4.05;;;;;;;;;;5102450;28;20040;-67
2023/10/25 13:42:04;;;;;;;7.47;4.30;;;;;;;;;;5106326;28;20039;-67
2023/10/25 13:44:30;;;;;;;7.40;5.28;;;;;;;;;;5099654;28;20048;-68
2023/10/25 13:46:57;;;;;;;3.60;2.70;;;;;;;;;;5103858;28;20070;-67
2023/10/25 13:49:24;;;;;;;4.85;3.38;;;;;;;;;;5104294;28;20043;-66
2023/10/25 13:51:51;;;;;;;8.07;5.35;;;;;;;;;;5107659;28;20048;-67
2023/10/25 13:54:19;;;;;;;4.68;3.05;;;;;;;;;;5102049;28;20056;-67
2023/10/25 13:56:46;;;;;;;5.03;3.97;;;;;;;;;;5099838;28;20044;-68
2023/10/25 13:59:12;;;;;;;4.57;3.33;;;;;;;;;;5102323;28;20047;-67
2023/10/25 14:01:41;;;;;;;5.63;3.53;;;;;;;;;;5099041;28;20043;-69
2023/10/25 14:04:09;;;;;;;5.53;3.25;;;;;;;;;;5096348;28;20039;-68
2023/10/25 14:06:36;;;;;;;5.05;3.40;;;;;;;;;;5096414;28;20131;-67
2023/10/25 14:09:04;;;;;;;6.40;4.28;;;;;;;;;;5104015;28;20047;-67
2023/10/25 14:11:32;;;;;;;5.68;3.08;;;;;;;;;;5107096;28;20048;-69
2023/10/25 14:13:58;;;;;;;8.80;7.53;;;;;;;;;;5110551;28;20044;-68
2023/10/25 14:16:26;;;;;;;6.60;5.63;;;;;;;;;;5106137;28;20423;-69
2023/10/25 14:18:52;;;;;;;5.20;3.67;;;;;;;;;;5102474;28;20519;-68
2023/10/25 14:21:19;;;;;;;3.97;3.33;;;;;;;;;;5107305;28;20052;-68
2023/10/25 14:23:46;;;;;;;5.55;3.70;;;;;;;;;;5106966;28;20046;-67
2023/10/25 14:26:14;;;;;;;3.85;2.17;;;;;;;;;;5109498;28;20055;-67
2023/10/25 14:28:41;;;;;;;3.53;2.60;;;;;;;;;;5107726;28;20430;-68
2023/10/25 14:31:07;;;;;;;3.83;2.53;;;;;;;;;;5107618;28;20048;-68
2023/10/25 14:33:34;;;;;;;3.38;2.83;;;;;;;;;;5114389;28;20044;-68
2023/10/25 14:36:01;;;;;;;3.42;2.50;;;;;;;;;;5112825;28;20074;-67
2023/10/25 14:38:27;;;;;;;5.50;2.53;;;;;;;;;;5110828;28;20046;-67
2023/10/25 14:40:54;;;;;;;5.43;3.97;;;;;;;;;;5110670;28;20048;-67
2023/10/25 14:43:22;;;;;;;4.68;3.10;;;;;;;;;;5109237;28;20054;-68
2023/10/25 14:45:48;;;;;;;6.28;3.70;;;;;;;;;;5108481;28;20137;-68